Terminal Aerodrome Forecast
Issued by NWS

Home | Current Version | Previous Version | Text Only | Print | Product List | Glossary On
Versions: 1 2 3 4 5 6 7 8 9 10 11 12 13 14
000
FTUS45 KBYZ 231731
TAFLVM
TAF
KLVM 231731Z 2318/2418 10004KT P6SM FEW080
     FM232000 36006KT P6SM SCT080
     FM232100 03008KT P6SM SCT080
     FM240300 09008KT P6SM SKC
     FM241200 03005KT P6SM SKC=

USA.gov is the U.S. government's official web portal to all federal, state and local government web resources and services.